sensor_id;sensor_type;location;lat;lon;timestamp;pressure;altitude;pressure_sealevel;temperature;humidity
24390;BME280;12510;56.468;-3.004;2023-06-05T00:00:03;102006.13;;;16.29;100.00
24390;BME280;12510;56.468;-3.004;2023-06-05T00:02:38;102002.34;;;16.12;100.00
24390;BME280;12510;56.468;-3.004;2023-06-05T00:05:05;101997.19;;;16.11;100.00
24390;BME280;12510;56.468;-3.004;2023-06-05T00:07:35;102002.91;;;16.25;100.00
24390;BME280;12510;56.468;-3.004;2023-06-05T00:10:05;102004.03;;;16.23;100.00
24390;BME280;12510;56.468;-3.004;2023-06-05T00:12:32;102018.44;;;16.01;100.00
24390;BME280;12510;56.468;-3.004;2023-06-05T00:14:58;102005.56;;;16.16;100.00
24390;BME280;12510;56.468;-3.004;2023-06-05T00:17:25;102007.13;;;16.18;100.00
24390;BME280;12510;56.468;-3.004;2023-06-05T00:19:51;102005.00;;;16.32;100.00
24390;BME280;12510;56.468;-3.004;2023-06-05T00:22:18;101994.78;;;16.27;100.00
24390;BME280;12510;56.468;-3.004;2023-06-05T00:24:44;102002.34;;;16.12;100.00
24390;BME280;12510;56.468;-3.004;2023-06-05T00:27:11;102002.06;;;16.15;100.00
24390;BME280;12510;56.468;-3.004;2023-06-05T00:29:37;102003.59;;;16.08;100.00
24390;BME280;12510;56.468;-3.004;2023-06-05T00:32:04;101991.00;;;16.30;100.00
24390;BME280;12510;56.468;-3.004;2023-06-05T00:34:30;102002.78;;;16.17;100.00
24390;BME280;12510;56.468;-3.004;2023-06-05T00:36:57;102002.06;;;16.25;100.00
24390;BME280;12510;56.468;-3.004;2023-06-05T00:39:24;102004.16;;;16.12;100.00
24390;BME280;12510;56.468;-3.004;2023-06-05T00:41:50;101995.78;;;16.16;100.00
24390;BME280;12510;56.468;-3.004;2023-06-05T00:44:18;101997.75;;;16.14;100.00
24390;BME280;12510;56.468;-3.004;2023-06-05T00:46:44;102000.78;;;16.19;100.00
24390;BME280;12510;56.468;-3.004;2023-06-05T00:49:12;102007.81;;;16.01;100.00
24390;BME280;12510;56.468;-3.004;2023-06-05T00:51:41;102001.09;;;16.16;100.00
24390;BME280;12510;56.468;-3.004;2023-06-05T00:54:08;102011.81;;;15.95;100.00
24390;BME280;12510;56.468;-3.004;2023-06-05T00:56:36;102005.28;;;16.09;100.00
24390;BME280;12510;56.468;-3.004;2023-06-05T00:59:03;102002.78;;;16.37;100.00
24390;BME280;12510;56.468;-3.004;2023-06-05T01:01:30;102017.44;;;16.31;100.00
24390;BME280;12510;56.468;-3.004;2023-06-05T01:03:56;102006.97;;;16.30;100.00
24390;BME280;12510;56.468;-3.004;2023-06-05T01:06:26;102008.78;;;16.29;100.00
24390;BME280;12510;56.468;-3.004;2023-06-05T01:08:53;102018.28;;;16.22;100.00
24390;BME280;12510;56.468;-3.004;2023-06-05T01:11:43;102011.41;;;16.49;100.00
24390;BME280;12510;56.468;-3.004;2023-06-05T01:14:21;101996.88;;;16.43;100.00
24390;BME280;12510;56.468;-3.004;2023-06-05T01:16:51;102006.97;;;16.49;100.00
24390;BME280;12510;56.468;-3.004;2023-06-05T01:19:21;102007.50;;;16.53;100.00
24390;BME280;12510;56.468;-3.004;2023-06-05T01:21:51;102006.25;;;16.47;100.00
24390;BME280;12510;56.468;-3.004;2023-06-05T01:24:18;102008.50;;;16.52;100.00
24390;BME280;12510;56.468;-3.004;2023-06-05T01:32:02;102011.16;;;16.13;100.00
24390;BME280;12510;56.468;-3.004;2023-06-05T01:34:33;102011.03;;;16.24;100.00
24390;BME280;12510;56.468;-3.004;2023-06-05T01:37:02;102005.97;;;16.01;100.00
24390;BME280;12510;56.468;-3.004;2023-06-05T01:39:29;102014.00;;;15.70;100.00
24390;BME280;12510;56.468;-3.004;2023-06-05T01:41:58;102012.53;;;15.87;100.00
24390;BME280;12510;56.468;-3.004;2023-06-05T01:44:26;102001.50;;;16.12;100.00
24390;BME280;12510;56.468;-3.004;2023-06-05T01:46:53;101998.41;;;16.26;100.00
24390;BME280;12510;56.468;-3.004;2023-06-05T01:49:19;102006.97;;;16.10;100.00
24390;BME280;12510;56.468;-3.004;2023-06-05T01:51:47;102009.88;;;15.87;100.00
24390;BME280;12510;56.468;-3.004;2023-06-05T01:54:14;102007.66;;;16.02;100.00
24390;BME280;12510;56.468;-3.004;2023-06-05T01:56:42;102003.59;;;16.18;100.00
24390;BME280;12510;56.468;-3.004;2023-06-05T01:59:09;102006.50;;;15.85;100.00
24390;BME280;12510;56.468;-3.004;2023-06-05T02:01:36;102013.66;;;15.85;100.00
24390;BME280;12510;56.468;-3.004;2023-06-05T02:04:02;102007.63;;;15.83;100.00
24390;BME280;12510;56.468;-3.004;2023-06-05T02:06:34;102024.78;;;15.69;100.00
24390;BME280;12510;56.468;-3.004;2023-06-05T02:09:12;102016.94;;;15.67;100.00
24390;BME280;12510;56.468;-3.004;2023-06-05T02:11:39;102011.56;;;15.98;100.00
24390;BME280;12510;56.468;-3.004;2023-06-05T02:14:06;102008.78;;;16.00;100.00
24390;BME280;12510;56.468;-3.004;2023-06-05T02:16:33;102002.06;;;16.25;100.00
24390;BME280;12510;56.468;-3.004;2023-06-05T02:19:00;101999.00;;;16.20;100.00
24390;BME280;12510;56.468;-3.004;2023-06-05T02:21:30;102004.72;;;16.15;100.00
24390;BME280;12510;56.468;-3.004;2023-06-05T02:24:00;102004.28;;;16.00;100.00
24390;BME280;12510;56.468;-3.004;2023-06-05T02:26:27;102003.31;;;15.91;100.00
24390;BME280;12510;56.468;-3.004;2023-06-05T02:28:57;102004.66;;;15.76;100.00
24390;BME280;12510;56.468;-3.004;2023-06-05T02:31:24;102005.53;;;15.86;100.00
24390;BME280;12510;56.468;-3.004;2023-06-05T02:33:53;102005.25;;;15.89;100.00
24390;BME280;12510;56.468;-3.004;2023-06-05T02:36:23;102009.66;;;15.69;100.00
24390;BME280;12510;56.468;-3.004;2023-06-05T02:38:51;102008.78;;;15.90;100.00
24390;BME280;12510;56.468;-3.004;2023-06-05T02:41:19;102002.31;;;15.92;100.00
24390;BME280;12510;56.468;-3.004;2023-06-05T02:43:48;102007.63;;;15.83;100.00
24390;BME280;12510;56.468;-3.004;2023-06-05T02:46:14;102002.88;;;15.86;100.00
24390;BME280;12510;56.468;-3.004;2023-06-05T02:48:42;102022.75;;;15.51;100.00
24390;BME280;12510;56.468;-3.004;2023-06-05T02:51:08;102030.03;;;15.18;100.00
24390;BME280;12510;56.468;-3.004;2023-06-05T02:53:37;102020.19;;;15.40;100.00
24390;BME280;12510;56.468;-3.004;2023-06-05T02:56:05;102009.66;;;15.59;100.00
24390;BME280;12510;56.468;-3.004;2023-06-05T02:58:32;101996.53;;;15.78;100.00
24390;BME280;12510;56.468;-3.004;2023-06-05T03:01:00;101998.91;;;15.71;100.00
24390;BME280;12510;56.468;-3.004;2023-06-05T03:03:37;102000.88;;;15.79;100.00
24390;BME280;12510;56.468;-3.004;2023-06-05T03:06:04;102003.47;;;15.59;100.00
24390;BME280;12510;56.468;-3.004;2023-06-05T03:08:34;102019.19;;;15.31;100.00
24390;BME280;12510;56.468;-3.004;2023-06-05T03:11:02;102015.31;;;15.35;100.00
24390;BME280;12510;56.468;-3.004;2023-06-05T03:13:30;102012.97;;;15.52;100.00
24390;BME280;12510;56.468;-3.004;2023-06-05T03:15:57;102005.81;;;15.83;100.00
24390;BME280;12510;56.468;-3.004;2023-06-05T03:18:25;102009.28;;;15.74;100.00
24390;BME280;12510;56.468;-3.004;2023-06-05T03:20:55;102006.66;;;15.94;100.00
24390;BME280;12510;56.468;-3.004;2023-06-05T03:23:27;102018.41;;;15.40;100.00
24390;BME280;12510;56.468;-3.004;2023-06-05T03:25:55;102005.44;;;15.57;100.00
24390;BME280;12510;56.468;-3.004;2023-06-05T03:28:23;102015.16;;;15.37;100.00
24390;BME280;12510;56.468;-3.004;2023-06-05T03:30:50;102003.06;;;15.54;100.00
24390;BME280;12510;56.468;-3.004;2023-06-05T03:33:19;102003.75;;;15.56;100.00
24390;BME280;12510;56.468;-3.004;2023-06-05T03:35:46;102002.41;;;15.71;100.00
24390;BME280;12510;56.468;-3.004;2023-06-05T03:38:13;102010.25;;;15.32;100.00
24390;BME280;12510;56.468;-3.004;2023-06-05T03:40:40;102009.34;;;15.53;100.00
24390;BME280;12510;56.468;-3.004;2023-06-05T03:43:09;102004.59;;;15.56;100.00
24390;BME280;12510;56.468;-3.004;2023-06-05T03:45:37;102001.00;;;15.67;100.00
24390;BME280;12510;56.468;-3.004;2023-06-05T03:48:08;102010.59;;;15.49;100.00
24390;BME280;12510;56.468;-3.004;2023-06-05T03:50:41;102015.75;;;15.40;100.00
24390;BME280;12510;56.468;-3.004;2023-06-05T03:53:07;102010.94;;;15.24;100.00
24390;BME280;12510;56.468;-3.004;2023-06-05T03:55:36;102005.97;;;15.51;100.00
24390;BME280;12510;56.468;-3.004;2023-06-05T03:58:15;101993.72;;;15.59;100.00
24390;BME280;12510;56.468;-3.004;2023-06-05T04:00:46;102009.38;;;15.63;100.00
24390;BME280;12510;56.468;-3.004;2023-06-05T04:03:17;101992.19;;;15.76;100.00
24390;BME280;12510;56.468;-3.004;2023-06-05T04:05:45;101988.19;;;15.82;100.00
24390;BME280;12510;56.468;-3.004;2023-06-05T04:08:11;101989.59;;;15.96;100.00
24390;BME280;12510;56.468;-3.004;2023-06-05T04:10:38;101999.88;;;15.70;100.00
24390;BME280;12510;56.468;-3.004;2023-06-05T04:13:04;101995.72;;;15.77;100.00
24390;BME280;12510;56.468;-3.004;2023-06-05T04:15:33;101995.59;;;15.88;100.00
24390;BME280;12510;56.468;-3.004;2023-06-05T04:18:01;101994.06;;;15.86;100.00
24390;BME280;12510;56.468;-3.004;2023-06-05T04:20:28;101983.75;;;16.02;100.00
24390;BME280;12510;56.468;-3.004;2023-06-05T04:22:55;101993.81;;;16.08;100.00
24390;BME280;12510;56.468;-3.004;2023-06-05T04:25:21;101984.59;;;16.22;100.00
24390;BME280;12510;56.468;-3.004;2023-06-05T04:27:49;101993.53;;;16.02;100.00
24390;BME280;12510;56.468;-3.004;2023-06-05T04:30:17;101994.91;;;15.96;100.00
24390;BME280;12510;56.468;-3.004;2023-06-05T04:32:44;101987.09;;;16.24;100.00
24390;BME280;12510;56.468;-3.004;2023-06-05T04:35:22;102004.28;;;16.00;100.00
24390;BME280;12510;56.468;-3.004;2023-06-05T04:37:49;101997.56;;;16.06;100.00
24390;BME280;12510;56.468;-3.004;2023-06-05T04:40:18;101992.53;;;16.03;100.00
24390;BME280;12510;56.468;-3.004;2023-06-05T04:42:50;101993.13;;;15.97;100.00
24390;BME280;12510;56.468;-3.004;2023-06-05T04:45:20;101991.94;;;15.80;100.00
24390;BME280;12510;56.468;-3.004;2023-06-05T04:47:48;101987.38;;;16.01;100.00
24390;BME280;12510;56.468;-3.004;2023-06-05T04:50:28;101994.81;;;16.07;100.00
24390;BME280;12510;56.468;-3.004;2023-06-05T04:53:04;101993.38;;;15.94;100.00
24390;BME280;12510;56.468;-3.004;2023-06-05T04:55:32;101999.13;;;15.99;100.00
24390;BME280;12510;56.468;-3.004;2023-06-05T04:57:59;102000.16;;;15.76;100.00
24390;BME280;12510;56.468;-3.004;2023-06-05T05:00:29;102002.88;;;15.86;100.00
24390;BME280;12510;56.468;-3.004;2023-06-05T05:02:55;102002.22;;;15.94;100.00
24390;BME280;12510;56.468;-3.004;2023-06-05T05:05:22;102002.06;;;16.15;100.00
24390;BME280;12510;56.468;-3.004;2023-06-05T05:07:51;102006.13;;;15.90;100.00
24390;BME280;12510;56.468;-3.004;2023-06-05T05:10:20;102014.09;;;15.59;100.00
24390;BME280;12510;56.468;-3.004;2023-06-05T05:12:46;102015.50;;;15.53;100.00
24390;BME280;12510;56.468;-3.004;2023-06-05T05:15:14;101999.41;;;16.05;100.00
24390;BME280;12510;56.468;-3.004;2023-06-05T05:17:41;102003.34;;;16.21;100.00
24390;BME280;12510;56.468;-3.004;2023-06-05T05:20:08;102016.53;;;15.72;100.00
24390;BME280;12510;56.468;-3.004;2023-06-05T05:22:38;102009.50;;;16.12;100.00
24390;BME280;12510;56.468;-3.004;2023-06-05T05:25:05;102013.38;;;15.88;100.00
24390;BME280;12510;56.468;-3.004;2023-06-05T05:27:32;102005.16;;;16.11;100.00
24390;BME280;12510;56.468;-3.004;2023-06-05T05:29:58;102003.75;;;16.06;100.00
24390;BME280;12510;56.468;-3.004;2023-06-05T05:32:25;102006.69;;;16.03;100.00
24390;BME280;12510;56.468;-3.004;2023-06-05T05:34:52;102000.69;;;16.21;100.00
24390;BME280;12510;56.468;-3.004;2023-06-05T05:37:18;102006.81;;;16.02;100.00
24390;BME280;12510;56.468;-3.004;2023-06-05T05:39:45;102010.41;;;15.81;100.00
24390;BME280;12510;56.468;-3.004;2023-06-05T05:42:12;101997.03;;;16.12;100.00
24390;BME280;12510;56.468;-3.004;2023-06-05T05:44:38;102001.78;;;15.89;100.00
24390;BME280;12510;56.468;-3.004;2023-06-05T05:47:08;102002.78;;;16.07;100.00
24390;BME280;12510;56.468;-3.004;2023-06-05T05:49:35;101992.81;;;16.39;100.00
24390;BME280;12510;56.468;-3.004;2023-06-05T05:52:01;101997.13;;;16.69;100.00
24390;BME280;12510;56.468;-3.004;2023-06-05T05:54:28;102003.19;;;16.52;100.00
24390;BME280;12510;56.468;-3.004;2023-06-05T05:56:55;101995.44;;;16.68;100.00
24390;BME280;12510;56.468;-3.004;2023-06-05T05:59:21;101995.69;;;16.85;100.00
24390;BME280;12510;56.468;-3.004;2023-06-05T06:01:48;101991.09;;;16.77;100.00
24390;BME280;12510;56.468;-3.004;2023-06-05T06:04:18;102004.28;;;16.39;100.00
24390;BME280;12510;56.468;-3.004;2023-06-05T06:06:44;102011.16;;;16.52;100.00
24390;BME280;12510;56.468;-3.004;2023-06-05T06:09:14;102009.75;;;16.28;100.00
24390;BME280;12510;56.468;-3.004;2023-06-05T06:11:42;102010.16;;;16.53;100.00
24390;BME280;12510;56.468;-3.004;2023-06-05T06:14:08;101999.03;;;16.87;100.00
24390;BME280;12510;56.468;-3.004;2023-06-05T06:16:37;102001.28;;;16.82;100.00
24390;BME280;12510;56.468;-3.004;2023-06-05T06:19:04;102003.72;;;16.46;100.00
24390;BME280;12510;56.468;-3.004;2023-06-05T06:21:30;102005.41;;;16.47;100.00
24390;BME280;12510;56.468;-3.004;2023-06-05T06:23:57;101993.44;;;17.28;100.00
24390;BME280;12510;56.468;-3.004;2023-06-05T06:26:23;101986.09;;;17.39;100.00
24390;BME280;12510;56.468;-3.004;2023-06-05T06:28:51;101994.31;;;17.28;100.00
24390;BME280;12510;56.468;-3.004;2023-06-05T06:31:17;101995.00;;;16.92;100.00
24390;BME280;12510;56.468;-3.004;2023-06-05T06:33:44;101996.81;;;17.30;100.00
24390;BME280;12510;56.468;-3.004;2023-06-05T06:36:10;101984.41;;;17.66;100.00
24390;BME280;12510;56.468;-3.004;2023-06-05T06:38:38;101986.25;;;17.38;100.00
24390;BME280;12510;56.468;-3.004;2023-06-05T06:41:04;101994.59;;;17.53;100.00
24390;BME280;12510;56.468;-3.004;2023-06-05T06:43:31;101992.69;;;17.91;100.00
24390;BME280;12510;56.468;-3.004;2023-06-05T06:46:02;101987.47;;;17.71;100.00
24390;BME280;12510;56.468;-3.004;2023-06-05T06:48:28;101994.31;;;17.28;100.00
24390;BME280;12510;56.468;-3.004;2023-06-05T06:50:54;101989.41;;;17.23;100.00
24390;BME280;12510;56.468;-3.004;2023-06-05T06:53:21;101992.78;;;17.71;100.00
24390;BME280;12510;56.468;-3.004;2023-06-05T06:55:47;101994.59;;;17.53;100.00
24390;BME280;12510;56.468;-3.004;2023-06-05T06:58:14;101997.72;;;17.66;100.00
24390;BME280;12510;56.468;-3.004;2023-06-05T07:00:40;101994.47;;;17.72;100.00
24390;BME280;12510;56.468;-3.004;2023-06-05T07:03:07;101987.31;;;17.73;100.00
24390;BME280;12510;56.468;-3.004;2023-06-05T07:05:34;101987.88;;;17.95;100.00
24390;BME280;12510;56.468;-3.004;2023-06-05T07:08:01;101986.50;;;17.90;100.00
24390;BME280;12510;56.468;-3.004;2023-06-05T07:10:28;101990.78;;;18.01;100.00
24390;BME280;12510;56.468;-3.004;2023-06-05T07:12:55;101996.44;;;17.70;100.00
24390;BME280;12510;56.468;-3.004;2023-06-05T07:15:21;102000.56;;;17.65;100.00
24390;BME280;12510;56.468;-3.004;2023-06-05T07:17:47;101993.91;;;18.15;100.00
24390;BME280;12510;56.468;-3.004;2023-06-05T07:20:14;102001.78;;;17.70;100.00
24390;BME280;12510;56.468;-3.004;2023-06-05T07:22:44;101992.75;;;18.17;100.00
24390;BME280;12510;56.468;-3.004;2023-06-05T07:25:13;102006.75;;;17.83;100.00
24390;BME280;12510;56.468;-3.004;2023-06-05T07:27:43;101994.84;;;18.50;100.00
24390;BME280;12510;56.468;-3.004;2023-06-05T07:30:10;101990.47;;;18.22;100.00
24390;BME280;12510;56.468;-3.004;2023-06-05T07:32:40;101988.78;;;18.21;100.00
24390;BME280;12510;56.468;-3.004;2023-06-05T07:35:09;102006.00;;;17.91;100.00
24390;BME280;12510;56.468;-3.004;2023-06-05T07:37:35;102004.03;;;17.93;100.00
24390;BME280;12510;56.468;-3.004;2023-06-05T07:40:02;102007.16;;;18.06;100.00
24390;BME280;12510;56.468;-3.004;2023-06-05T07:42:29;102002.78;;;17.87;100.00
24390;BME280;12510;56.468;-3.004;2023-06-05T07:44:55;101999.00;;;18.08;100.00
24390;BME280;12510;56.468;-3.004;2023-06-05T07:47:21;102000.91;;;18.16;100.00
24390;BME280;12510;56.468;-3.004;2023-06-05T07:50:01;101997.78;;;18.20;100.00
24390;BME280;12510;56.468;-3.004;2023-06-05T07:52:30;101999.03;;;17.62;100.00
24390;BME280;12510;56.468;-3.004;2023-06-05T07:54:57;102000.31;;;18.04;100.00
24390;BME280;12510;56.468;-3.004;2023-06-05T07:57:24;101998.78;;;18.01;100.00
24390;BME280;12510;56.468;-3.004;2023-06-05T07:59:50;102007.75;;;17.54;100.00
24390;BME280;12510;56.468;-3.004;2023-06-05T08:02:17;102007.16;;;17.61;100.00
24390;BME280;12510;56.468;-3.004;2023-06-05T08:04:44;102003.16;;;17.74;100.00
24390;BME280;12510;56.468;-3.004;2023-06-05T08:07:11;102005.41;;;17.69;100.00
24390;BME280;12510;56.468;-3.004;2023-06-05T08:09:37;102003.66;;;17.60;100.00
24390;BME280;12510;56.468;-3.004;2023-06-05T08:12:04;102005.31;;;18.07;100.00
24390;BME280;12510;56.468;-3.004;2023-06-05T08:14:33;101997.38;;;18.51;100.00
24390;BME280;12510;56.468;-3.004;2023-06-05T08:17:00;102006.75;;;17.28;100.00
24390;BME280;12510;56.468;-3.004;2023-06-05T08:19:27;102002.88;;;17.78;100.00
24390;BME280;12510;56.468;-3.004;2023-06-05T08:21:53;101992.91;;;18.16;100.00
24390;BME280;12510;56.468;-3.004;2023-06-05T08:24:20;101997.72;;;17.94;100.00
24390;BME280;12510;56.468;-3.004;2023-06-05T08:26:47;101992.94;;;17.98;100.00
24390;BME280;12510;56.468;-3.004;2023-06-05T08:29:13;101990.28;;;17.88;100.00
24390;BME280;12510;56.468;-3.004;2023-06-05T08:31:39;101996.75;;;17.85;100.00
24390;BME280;12510;56.468;-3.004;2023-06-05T08:34:06;102005.59;;;17.86;100.00
24390;BME280;12510;56.468;-3.004;2023-06-05T08:36:32;102002.38;;;17.64;100.00
24390;BME280;12510;56.468;-3.004;2023-06-05T08:39:01;101997.97;;;18.01;100.00
24390;BME280;12510;56.468;-3.004;2023-06-05T08:41:30;101990.63;;;18.03;100.00
24390;BME280;12510;56.468;-3.004;2023-06-05T08:43:59;101999.84;;;17.63;100.00
24390;BME280;12510;56.468;-3.004;2023-06-05T08:46:29;101998.91;;;17.82;100.00
24390;BME280;12510;56.468;-3.004;2023-06-05T08:48:57;101990.03;;;18.09;100.00
24390;BME280;12510;56.468;-3.004;2023-06-05T08:51:23;101989.50;;;18.23;100.00
24390;BME280;12510;56.468;-3.004;2023-06-05T08:54:03;101988.03;;;18.29;100.00
24390;BME280;12510;56.468;-3.004;2023-06-05T08:56:42;101983.19;;;18.24;100.00
24390;BME280;12510;56.468;-3.004;2023-06-05T08:59:10;101989.22;;;17.81;100.00
24390;BME280;12510;56.468;-3.004;2023-06-05T09:01:41;101996.91;;;17.66;100.00
24390;BME280;12510;56.468;-3.004;2023-06-05T09:04:07;102000.72;;;17.63;100.00
24390;BME280;12510;56.468;-3.004;2023-06-05T09:06:33;101988.56;;;18.15;100.00
24390;BME280;12510;56.468;-3.004;2023-06-05T09:09:00;101990.28;;;17.88;100.00
24390;BME280;12510;56.468;-3.004;2023-06-05T09:11:31;101984.53;;;18.29;100.00
24390;BME280;12510;56.468;-3.004;2023-06-05T09:13:59;101984.22;;;18.14;100.00
24390;BME280;12510;56.468;-3.004;2023-06-05T09:19:04;101993.63;;;17.72;100.00
24390;BME280;12510;56.468;-3.004;2023-06-05T09:21:31;101991.47;;;18.03;100.00
24390;BME280;12510;56.468;-3.004;2023-06-05T09:24:17;101994.34;;;18.72;100.00
24390;BME280;12510;56.468;-3.004;2023-06-05T09:29:33;101994.53;;;17.63;100.00
24390;BME280;12510;56.468;-3.004;2023-06-05T09:32:04;101986.44;;;18.18;100.00
24390;BME280;12510;56.468;-3.004;2023-06-05T09:34:32;101992.84;;;18.07;100.00
24390;BME280;12510;56.468;-3.004;2023-06-05T09:37:02;101992.44;;;17.84;100.00
24390;BME280;12510;56.468;-3.004;2023-06-05T09:39:30;101997.56;;;18.14;100.00
24390;BME280;12510;56.468;-3.004;2023-06-05T09:41:58;101983.78;;;18.18;100.00
24390;BME280;12510;56.468;-3.004;2023-06-05T09:44:26;101988.47;;;18.42;100.00
24390;BME280;12510;56.468;-3.004;2023-06-05T09:49:30;101990.69;;;18.29;100.00
24390;BME280;12510;56.468;-3.004;2023-06-05T09:51:59;101992.72;;;18.53;100.00
24390;BME280;12510;56.468;-3.004;2023-06-05T09:54:28;101991.66;;;18.72;100.00
24390;BME280;12510;56.468;-3.004;2023-06-05T09:57:00;101989.25;;;18.35;100.00
24390;BME280;12510;56.468;-3.004;2023-06-05T09:59:29;101993.63;;;18.62;100.00
24390;BME280;12510;56.468;-3.004;2023-06-05T10:02:04;101984.31;;;18.92;100.00
24390;BME280;12510;56.468;-3.004;2023-06-05T10:04:42;101995.41;;;18.80;100.00
24390;BME280;12510;56.468;-3.004;2023-06-05T10:07:12;101976.34;;;19.35;100.00
24390;BME280;12510;56.468;-3.004;2023-06-05T10:09:39;101990.22;;;19.39;100.00
24390;BME280;12510;56.468;-3.004;2023-06-05T10:12:08;101968.25;;;19.70;100.00
24390;BME280;12510;56.468;-3.004;2023-06-05T10:14:42;101975.59;;;19.68;100.00
24390;BME280;12510;56.468;-3.004;2023-06-05T10:17:11;101989.53;;;18.76;100.00
24390;BME280;12510;56.468;-3.004;2023-06-05T10:19:41;101988.81;;;18.92;100.00
24390;BME280;12510;56.468;-3.004;2023-06-05T10:22:12;101983.72;;;19.41;100.00
24390;BME280;12510;56.468;-3.004;2023-06-05T10:24:48;101993.59;;;19.06;100.00
24390;BME280;12510;56.468;-3.004;2023-06-05T10:27:26;101989.69;;;19.35;100.00
24390;BME280;12510;56.468;-3.004;2023-06-05T10:30:29;101988.22;;;19.41;100.00
24390;BME280;12510;56.468;-3.004;2023-06-05T10:38:45;101968.59;;;19.67;100.00
24390;BME280;12510;56.468;-3.004;2023-06-05T10:41:12;101981.19;;;19.91;100.00
24390;BME280;12510;56.468;-3.004;2023-06-05T10:43:49;101977.81;;;19.89;100.00
24390;BME280;12510;56.468;-3.004;2023-06-05T10:46:34;101985.97;;;19.20;100.00
24390;BME280;12510;56.468;-3.004;2023-06-05T10:51:32;101967.06;;;19.56;100.00
24390;BME280;12510;56.468;-3.004;2023-06-05T10:54:00;101983.28;;;19.63;100.00
24390;BME280;12510;56.468;-3.004;2023-06-05T10:59:33;101973.69;;;19.95;100.00
24390;BME280;12510;56.468;-3.004;2023-06-05T11:07:25;101976.47;;;19.25;100.00
24390;BME280;12510;56.468;-3.004;2023-06-05T11:17:39;101976.28;;;19.78;100.00
24390;BME280;12510;56.468;-3.004;2023-06-05T11:20:48;101965.13;;;20.16;100.00
24390;BME280;12510;56.468;-3.004;2023-06-05T11:25:28;101971.47;;;19.82;100.00
24390;BME280;12510;56.468;-3.004;2023-06-05T11:27:57;101962.28;;;20.17;100.00
24390;BME280;12510;56.468;-3.004;2023-06-05T11:30:42;101964.47;;;19.89;100.00
24390;BME280;12510;56.468;-3.004;2023-06-05T11:35:39;101978.34;;;19.33;100.00
24390;BME280;12510;56.468;-3.004;2023-06-05T11:40:41;101967.47;;;19.94;100.00
24390;BME280;12510;56.468;-3.004;2023-06-05T11:43:11;101969.50;;;19.92;100.00
24390;BME280;12510;56.468;-3.004;2023-06-05T11:45:43;101974.72;;;19.51;100.00
24390;BME280;12510;56.468;-3.004;2023-06-05T11:48:15;101991.13;;;19.64;100.00
24390;BME280;12510;56.468;-3.004;2023-06-05T11:51:03;101976.19;;;19.96;100.00
24390;BME280;12510;56.468;-3.004;2023-06-05T11:53:31;101989.56;;;19.96;100.00
24390;BME280;12510;56.468;-3.004;2023-06-05T11:55:59;101984.88;;;19.39;100.00
24390;BME280;12510;56.468;-3.004;2023-06-05T11:58:33;101983.88;;;19.99;100.00
24390;BME280;12510;56.468;-3.004;2023-06-05T12:03:30;101996.97;;;18.64;100.00
24390;BME280;12510;56.468;-3.004;2023-06-05T12:06:01;101995.97;;;19.18;100.00
24390;BME280;12510;56.468;-3.004;2023-06-05T12:08:28;101990.72;;;19.34;100.00
24390;BME280;12510;56.468;-3.004;2023-06-05T12:10:56;101998.03;;;19.32;100.00
24390;BME280;12510;56.468;-3.004;2023-06-05T12:13:22;101996.09;;;19.51;100.00
24390;BME280;12510;56.468;-3.004;2023-06-05T12:15:59;101996.31;;;18.88;100.00
24390;BME280;12510;56.468;-3.004;2023-06-05T12:18:32;102013.38;;;18.77;100.00
24390;BME280;12510;56.468;-3.004;2023-06-05T12:21:00;101998.97;;;19.15;100.00
24390;BME280;12510;56.468;-3.004;2023-06-05T12:23:28;101999.63;;;19.17;100.00
24390;BME280;12510;56.468;-3.004;2023-06-05T12:26:04;101999.25;;;19.46;100.00
24390;BME280;12510;56.468;-3.004;2023-06-05T12:28:31;101997.41;;;19.47;100.00
24390;BME280;12510;56.468;-3.004;2023-06-05T12:30:58;101996.25;;;20.08;100.00
24390;BME280;12510;56.468;-3.004;2023-06-05T12:33:24;101988.91;;;20.19;100.00
24390;BME280;12510;56.468;-3.004;2023-06-05T12:36:09;101987.88;;;19.87;100.00
24390;BME280;12510;56.468;-3.004;2023-06-05T12:38:40;101991.41;;;20.20;100.00
24390;BME280;12510;56.468;-3.004;2023-06-05T12:41:10;101983.50;;;20.76;100.00
24390;BME280;12510;56.468;-3.004;2023-06-05T12:43:37;101973.97;;;20.66;100.00
24390;BME280;12510;56.468;-3.004;2023-06-05T12:46:04;101981.19;;;20.40;100.00
24390;BME280;12510;56.468;-3.004;2023-06-05T12:48:31;101974.28;;;20.63;100.00
24390;BME280;12510;56.468;-3.004;2023-06-05T12:50:58;101974.31;;;20.46;100.00
24390;BME280;12510;56.468;-3.004;2023-06-05T12:53:24;101971.28;;;20.66;100.00
24390;BME280;12510;56.468;-3.004;2023-06-05T12:55:51;101981.84;;;20.42;100.00
24390;BME280;12510;56.468;-3.004;2023-06-05T12:58:17;101984.34;;;20.44;100.00
24390;BME280;12510;56.468;-3.004;2023-06-05T13:00:44;101977.13;;;20.61;100.00
24390;BME280;12510;56.468;-3.004;2023-06-05T13:03:11;101971.69;;;20.21;100.00
24390;BME280;12510;56.468;-3.004;2023-06-05T13:05:38;101974.84;;;20.50;100.00
24390;BME280;12510;56.468;-3.004;2023-06-05T13:08:05;101970.97;;;20.44;100.00
24390;BME280;12510;56.468;-3.004;2023-06-05T13:10:32;101968.47;;;20.59;100.00
24390;BME280;12510;56.468;-3.004;2023-06-05T13:12:58;101965.09;;;20.73;100.00
24390;BME280;12510;56.468;-3.004;2023-06-05T13:15:25;101960.50;;;21.38;100.00
24390;BME280;12510;56.468;-3.004;2023-06-05T13:17:51;101954.81;;;20.93;100.00
24390;BME280;12510;56.468;-3.004;2023-06-05T13:20:18;101960.09;;;20.37;100.00
24390;BME280;12510;56.468;-3.004;2023-06-05T13:22:44;101958.25;;;20.71;100.00
24390;BME280;12510;56.468;-3.004;2023-06-05T13:25:11;101967.13;;;20.71;100.00